createdAt,value
2019-03-29T11:22:32.248Z,24.7653
2019-03-29T11:22:45.487Z,24.7552
2019-03-29T11:23:00.111Z,24.7653
2019-03-29T11:23:10.576Z,24.7754
2019-03-29T11:23:22.631Z,24.7653
2019-03-29T11:23:33.927Z,24.7552
2019-03-29T11:23:45.280Z,24.7552
2019-03-29T11:23:55.641Z,24.7653
2019-03-29T11:24:10.721Z,24.7250
2019-03-29T11:24:22.637Z,24.7653
2019-03-29T11:24:36.055Z,24.7552
2019-03-29T11:24:47.543Z,24.7552
2019-03-29T11:24:58.909Z,24.7250
2019-03-29T11:25:10.472Z,24.7552
2019-03-29T11:25:22.647Z,24.7653
2019-03-29T11:25:33.259Z,24.7552
2019-03-29T11:25:44.591Z,24.7552
2019-03-29T11:25:55.909Z,24.7250
2019-03-29T11:26:07.209Z,24.7552
2019-03-29T11:26:19.196Z,24.7250
2019-03-29T11:26:32.259Z,24.7250
2019-03-29T11:26:43.658Z,24.7552
2019-03-29T11:26:54.559Z,24.7250
2019-03-29T11:27:22.490Z,24.7150
2019-03-29T11:27:34.058Z,24.7150
2019-03-29T11:27:45.529Z,24.7150
2019-03-29T11:27:56.838Z,24.7250
2019-03-29T11:28:10.610Z,24.7150
2019-03-29T11:28:21.916Z,24.7150
2019-03-29T11:28:33.247Z,24.7150
2019-03-29T11:28:44.679Z,24.7150
2019-03-29T11:28:56.189Z,24.6948
2019-03-29T11:29:07.827Z,24.7250
2019-03-29T11:29:19.161Z,24.6948
2019-03-29T11:29:29.521Z,24.7150
2019-03-29T11:29:40.806Z,24.7150
2019-03-29T11:29:53.599Z,24.7150
2019-03-29T11:30:08.408Z,24.7150
2019-03-29T11:30:25.777Z,24.6948
2019-03-29T11:30:42.524Z,24.6948
2019-03-29T11:30:53.340Z,24.6948
2019-03-29T11:31:04.781Z,24.7150
2019-03-29T11:31:16.219Z,24.6948
2019-03-29T11:31:27.623Z,24.6848
2019-03-29T11:31:38.958Z,24.6948
2019-03-29T11:31:51.070Z,24.6948
2019-03-29T11:32:04.674Z,24.6848
2019-03-29T11:32:16.354Z,24.6948
2019-03-29T11:32:49.899Z,24.6848
2019-03-29T11:33:02.576Z,24.6848
2019-03-29T11:33:14.397Z,24.6747
2019-03-29T11:33:26.546Z,24.6848
2019-03-29T11:33:37.591Z,24.6747
2019-03-29T11:33:47.912Z,24.6848
2019-03-29T11:33:59.278Z,24.6545
2019-03-29T11:34:10.793Z,24.6747
2019-03-29T11:34:25.117Z,24.6848
2019-03-29T11:34:37.399Z,24.6747
2019-03-29T11:34:49.754Z,24.6848
2019-03-29T11:35:01.060Z,24.6848
2019-03-29T11:35:11.361Z,24.6848
2019-03-29T11:35:22.644Z,24.6848
2019-03-29T11:36:41.745Z,24.6948
2019-03-29T11:42:34.836Z,24.3423
2019-03-29T11:42:47.158Z,24.3222
2019-03-29T11:42:59.034Z,24.3121
2019-03-29T11:43:25.664Z,24.3222
2019-03-29T11:43:28.542Z,24.3021
2019-03-29T11:43:39.989Z,24.3121
2019-03-29T11:43:52.391Z,24.3121
2019-03-29T11:44:04.981Z,24.3021
2019-03-29T11:44:17.572Z,24.3222
2019-03-29T12:30:30.464Z,19.1760
2019-03-29T12:30:32.312Z,19.5889
2019-03-29T12:30:44.751Z,19.7299
2019-03-29T12:30:57.157Z,19.5386
2019-03-29T12:31:08.471Z,19.3069
2019-03-29T12:31:20.695Z,18.9041
2019-03-29T12:31:33.023Z,19.1055
2019-03-29T12:31:44.267Z,19.3875
2019-03-29T12:31:56.519Z,19.4278
2019-03-29T12:32:08.805Z,19.3573
2019-03-29T12:32:21.021Z,19.3976
2019-03-29T12:32:34.293Z,19.5386
2019-03-29T12:32:46.505Z,19.4681
2019-03-29T12:32:58.726Z,19.2465
2019-03-29T12:33:11.062Z,18.9142
2019-03-29T12:33:23.296Z,18.7228
2019-03-29T12:33:35.524Z,18.7833
2019-03-29T12:33:47.766Z,18.8739
2019-03-29T12:33:59.946Z,18.9142
2019-03-29T12:34:12.134Z,18.9142
2019-03-29T12:34:24.356Z,18.9041
2019-03-29T12:34:36.561Z,18.9243
2019-03-29T12:34:48.779Z,18.9444
2019-03-29T12:35:01.109Z,18.9041
2019-03-29T12:35:13.859Z,18.9243
2019-03-29T12:35:26.066Z,19.0552
2019-03-29T12:35:38.246Z,19.0350
2019-03-29T12:35:50.452Z,19.1257
2019-03-29T12:36:02.712Z,19.2062
2019-03-29T12:36:16.026Z,19.3069
2019-03-29T12:36:28.266Z,19.3573
2019-03-29T12:36:40.458Z,19.3875
2019-03-29T12:36:52.734Z,19.4681
2019-03-29T12:37:04.984Z,19.4681
2019-03-29T12:37:17.293Z,19.4681
2019-03-29T12:37:29.486Z,19.5084
2019-03-29T12:37:41.698Z,19.6292
2019-03-29T12:37:53.897Z,19.6594
2019-03-29T12:38:06.096Z,19.4278
2019-03-29T12:38:18.389Z,19.3271
2019-03-29T12:38:30.584Z,19.4379
2019-03-29T12:38:42.780Z,19.5386
2019-03-29T12:38:54.969Z,19.4681
2019-03-29T12:39:07.196Z,19.3875
2019-03-29T12:39:19.414Z,19.3271
2019-03-29T12:39:31.592Z,19.3674
2019-03-29T12:39:43.800Z,19.2767
2019-03-29T12:39:56.095Z,19.0350
2019-03-29T12:40:08.310Z,18.9142
2019-03-29T12:40:20.504Z,18.8538
2019-03-29T12:40:32.748Z,18.8739
2019-03-29T12:40:45.320Z,18.8538
2019-03-29T12:40:58.879Z,18.8840
2019-03-29T12:41:11.090Z,19.0048
2019-03-29T12:41:22.302Z,19.0552
2019-03-29T12:41:33.514Z,18.9847
2019-03-29T12:41:45.705Z,18.9545
2019-03-29T12:41:57.894Z,18.9142
2019-03-29T12:42:10.965Z,18.7631
2019-03-29T12:42:23.190Z,18.8235
2019-03-29T12:42:35.386Z,18.7833
2019-03-29T12:42:47.592Z,18.6926
2019-03-29T12:42:58.886Z,18.6725
2019-03-29T12:43:12.609Z,18.6322
2019-03-29T12:43:25.046Z,18.7228
2019-03-29T12:43:38.425Z,18.8739
2019-03-29T12:43:55.929Z,18.9847
2019-03-29T12:44:07.947Z,19.0753
2019-03-29T12:44:20.124Z,19.1055
2019-03-29T12:44:32.304Z,18.9948
2019-03-29T12:44:44.494Z,18.9142
2019-03-29T12:44:56.732Z,18.9041
2019-03-29T12:45:08.932Z,18.9041
2019-03-29T12:45:21.130Z,18.7329
2019-03-29T12:45:33.436Z,18.6523
2019-03-29T12:45:44.631Z,18.6020
2019-03-29T12:45:58.647Z,18.6725
2019-03-29T12:46:10.913Z,18.8235
2019-03-29T12:46:24.393Z,18.8235
2019-03-29T12:46:36.595Z,18.9444
2019-03-29T12:46:48.796Z,18.9243
2019-03-29T12:47:01.073Z,18.8235
2019-03-29T12:47:13.383Z,18.8034
2019-03-29T12:47:25.734Z,18.8437
2019-03-29T12:47:38.113Z,18.8437
2019-03-29T12:47:50.476Z,18.8437
2019-03-29T12:48:02.838Z,18.8135
2019-03-29T12:48:15.103Z,18.6624
2019-03-29T12:48:28.155Z,18.5214
2019-03-29T12:48:40.453Z,18.4409
2019-03-29T12:48:52.661Z,18.2697
2019-03-29T12:49:04.855Z,18.2294
2019-03-29T12:49:17.055Z,18.3200
2019-03-29T12:49:29.265Z,18.2898
2019-03-29T12:49:41.543Z,18.3502
2019-03-29T12:49:53.773Z,18.4409
2019-03-29T12:50:05.975Z,18.6020
2019-03-29T12:50:18.189Z,18.7329
2019-03-29T12:50:30.403Z,18.7631
2019-03-29T12:50:43.295Z,18.8034
2019-03-29T12:50:55.506Z,18.8235
2019-03-29T12:51:07.827Z,18.7833
2019-03-29T12:51:20.053Z,18.9243
2019-03-29T12:51:32.254Z,19.0350
2019-03-29T12:51:46.555Z,19.0350
2019-03-29T12:51:59.314Z,18.9847
2019-03-29T12:52:11.534Z,19.0652
2019-03-29T12:52:23.732Z,19.0753
2019-03-29T12:52:34.935Z,19.0552
2019-03-29T12:52:47.137Z,19.1257
2019-03-29T12:52:59.413Z,19.2465
2019-03-29T12:53:11.696Z,19.3875
2019-03-29T12:53:23.912Z,19.4983
2019-03-29T12:53:36.115Z,19.6796
2019-03-29T12:53:48.403Z,19.8306
2019-03-29T12:53:59.673Z,19.9515
2019-03-29T12:54:12.353Z,19.9615
2019-03-29T12:54:24.643Z,19.9817
2019-03-29T12:54:36.855Z,20.0320
2019-03-29T12:54:49.073Z,20.2032
2019-03-29T12:55:01.295Z,20.3241
2019-03-29T12:55:13.495Z,20.3241
2019-03-29T12:55:25.706Z,20.4248
2019-03-29T12:55:37.965Z,20.4349
2019-03-29T12:55:50.345Z,20.5356
2019-03-29T12:56:02.553Z,20.5054
2019-03-29T12:56:14.873Z,20.4651
2019-03-29T12:56:27.075Z,20.5457
2019-03-29T12:56:39.349Z,20.3644
2019-03-29T12:56:50.597Z,20.1730
2019-03-29T12:57:02.795Z,20.0623
2019-03-29T12:57:15.009Z,19.9615
2019-03-29T12:57:27.214Z,19.9615
2019-03-29T12:57:39.620Z,19.9817
2019-03-29T12:57:51.890Z,19.8306
2019-03-29T12:58:04.127Z,19.5486
2019-03-29T12:58:16.344Z,19.1357
2019-03-29T12:58:28.555Z,19.0048
2019-03-29T12:58:40.765Z,18.9243
2019-03-29T12:58:53.024Z,18.8437
2019-03-29T12:59:05.317Z,18.6624
2019-03-29T12:59:17.596Z,18.5114
2019-03-29T12:59:28.795Z,18.5013
2019-03-29T12:59:41.005Z,18.6020
2019-03-29T12:59:53.273Z,18.7228
2019-03-29T13:00:05.554Z,18.9847
2019-03-29T13:00:17.773Z,19.1559
2019-03-29T13:00:30.044Z,19.2163
2019-03-29T13:00:42.253Z,19.2767
2019-03-29T13:00:54.503Z,19.2566
2019-03-29T13:01:05.832Z,19.0250
2019-03-29T13:01:17.143Z,18.9948
2019-03-29T13:01:39.400Z,19.0652
2019-03-29T13:01:46.506Z,19.0250
2019-03-29T13:01:58.715Z,19.0955
2019-03-29T13:02:10.962Z,19.3573
2019-03-29T13:02:23.175Z,19.3976
2019-03-29T13:02:35.366Z,19.3573
2019-03-29T13:02:47.576Z,19.3674
2019-03-29T13:02:59.786Z,19.4278
2019-03-29T13:03:12.023Z,19.3875
2019-03-29T13:03:24.293Z,19.4781
2019-03-29T13:03:36.523Z,19.4580
2019-03-29T13:03:47.746Z,19.3976
2019-03-29T13:03:59.963Z,19.2868
2019-03-29T13:04:12.224Z,19.0652
2019-03-29T13:04:24.473Z,18.9444
2019-03-29T13:04:36.733Z,18.8235
2019-03-29T13:04:48.954Z,18.7027
2019-03-29T13:05:01.164Z,18.3603
2019-03-29T13:05:13.415Z,18.1689
2019-03-29T13:05:24.645Z,18.0179
2019-03-29T13:05:36.913Z,18.1186
2019-03-29T13:05:49.173Z,18.2495
2019-03-29T13:06:00.366Z,18.1689
2019-03-29T13:06:12.642Z,18.2596
2019-03-29T13:06:24.926Z,18.5114
2019-03-29T13:06:36.184Z,18.7027
2019-03-29T13:06:47.483Z,18.9545
2019-03-29T13:06:59.964Z,19.0250
2019-03-29T13:07:12.330Z,19.1760
2019-03-29T13:07:24.706Z,19.2062
2019-03-29T13:07:37.253Z,19.3271
2019-03-29T13:07:52.961Z,19.4077
2019-03-29T13:08:05.536Z,19.5587
2019-03-29T13:08:17.735Z,19.6494
2019-03-29T13:08:29.997Z,19.8306
2019-03-29T13:08:41.333Z,19.9414
2019-03-29T13:08:53.594Z,19.8105
2019-03-29T13:09:05.845Z,19.7803
2019-03-29T13:09:17.125Z,19.7400
2019-03-29T13:09:29.473Z,19.8306
2019-03-29T13:09:41.792Z,19.8608
2019-03-29T13:09:54.082Z,19.8810
2019-03-29T13:10:05.353Z,19.8608
2019-03-29T13:10:17.575Z,19.9615
2019-03-29T13:10:29.848Z,20.1730
2019-03-29T13:10:42.758Z,20.2637
2019-03-29T13:10:55.093Z,20.4752
2019-03-29T13:11:07.314Z,20.7269
2019-03-29T13:11:18.603Z,20.7370
2019-03-29T13:11:30.853Z,20.8679
2019-03-29T13:11:43.075Z,20.9787
2019-03-29T13:11:55.277Z,20.9485
2019-03-29T13:12:07.486Z,20.7874
2019-03-29T13:12:20.155Z,20.7370
2019-03-29T13:12:32.366Z,20.7269
2019-03-29T13:12:44.573Z,20.8176
2019-03-29T13:13:00.222Z,20.9384
2019-03-29T13:13:12.899Z,21.1600
2019-03-29T13:13:25.465Z,21.3815
2019-03-29T13:13:37.715Z,21.4319
2019-03-29T13:13:49.963Z,21.2708
2019-03-29T13:14:10.279Z,21.2405
2019-03-29T13:14:18.687Z,20.9686
2019-03-29T13:14:30.883Z,20.6363
2019-03-29T13:14:43.065Z,20.3543
2019-03-29T13:14:55.310Z,20.1025
2019-03-29T13:15:07.507Z,19.9112
2019-03-29T13:15:19.685Z,19.7803
2019-03-29T13:15:31.895Z,19.7400
2019-03-29T13:15:45.173Z,19.8306
2019-03-29T13:15:56.725Z,19.9112
2019-03-29T13:16:08.915Z,19.6796
2019-03-29T13:16:21.191Z,19.4379
2019-03-29T13:16:32.379Z,19.3875
2019-03-29T13:16:44.593Z,19.3976
2019-03-29T13:16:56.777Z,19.2868
2019-03-29T13:17:08.965Z,19.0955
2019-03-29T13:17:21.169Z,19.0552
2019-03-29T13:17:33.365Z,18.9847
2019-03-29T13:17:45.547Z,18.9041
2019-03-29T13:17:57.745Z,18.8840
2019-03-29T13:18:09.925Z,18.9142
2019-03-29T13:18:22.137Z,18.9847
2019-03-29T13:18:34.325Z,19.0048
2019-03-29T13:18:46.529Z,19.0552
2019-03-29T13:18:58.715Z,19.2062
2019-03-29T13:19:10.896Z,19.1760
2019-03-29T13:19:23.077Z,19.2868
2019-03-29T13:19:35.264Z,19.3271
2019-03-29T13:19:47.449Z,19.2465
2019-03-29T13:19:59.627Z,19.2062
2019-03-29T13:20:11.828Z,19.0955
2019-03-29T13:20:24.031Z,19.1055
2019-03-29T13:20:36.235Z,19.2767
2019-03-29T13:20:48.447Z,19.4077
2019-03-29T13:20:59.635Z,19.3875
2019-03-29T13:21:11.835Z,19.4379
2019-03-29T13:21:24.036Z,19.5486
2019-03-29T13:21:38.792Z,19.6091
2019-03-29T13:21:51.197Z,19.7702
2019-03-29T13:22:03.387Z,19.9414
2019-03-29T13:22:15.587Z,20.2032
2019-03-29T13:22:27.925Z,20.4953
2019-03-29T13:22:40.109Z,20.6161
2019-03-29T13:22:52.295Z,20.8377
2019-03-29T13:23:04.485Z,20.8881
2019-03-29T13:23:21.790Z,20.7370
2019-03-29T13:23:34.162Z,20.5356
2019-03-29T13:23:46.341Z,20.4147
2019-03-29T13:23:57.531Z,20.3644
2019-03-29T13:24:09.708Z,20.3342
2019-03-29T13:24:21.955Z,20.2637
2019-03-29T13:24:34.152Z,20.1025
2019-03-29T13:24:46.361Z,20.0824
2019-03-29T13:24:58.543Z,20.0220
2019-03-29T13:25:10.745Z,19.9414
2019-03-29T13:25:22.924Z,19.9213
2019-03-29T13:25:35.114Z,19.8306
2019-03-29T13:25:47.350Z,19.7098
2019-03-29T13:25:59.531Z,19.6896
2019-03-29T13:26:11.880Z,19.8004
2019-03-29T13:26:24.067Z,19.8709
2019-03-29T13:26:35.702Z,19.8407
2019-03-29T13:26:47.990Z,19.6896
2019-03-29T13:26:59.428Z,19.6191
2019-03-29T13:27:10.778Z,19.6191
2019-03-29T13:27:23.132Z,19.6796
2019-03-29T13:27:35.460Z,19.8608
2019-03-29T13:27:47.652Z,20.0824
2019-03-29T13:27:59.848Z,20.2939
2019-03-29T13:28:11.155Z,20.5054
2019-03-29T13:28:23.343Z,20.5457
2019-03-29T13:28:35.539Z,20.1328
2019-03-29T13:28:47.733Z,20.0522
2019-03-29T13:28:59.949Z,19.9414
2019-03-29T13:29:12.227Z,19.8810
2019-03-29T13:29:23.521Z,19.9615
2019-03-29T13:29:35.720Z,19.9918
2019-03-29T13:29:47.913Z,20.0522
2019-03-29T13:30:00.140Z,20.0824
2019-03-29T13:30:12.573Z,20.1126
2019-03-29T13:30:24.783Z,20.2335
2019-03-29T13:30:36.981Z,20.3543
2019-03-29T13:30:49.173Z,20.1428
2019-03-29T13:31:01.381Z,20.0623
2019-03-29T13:31:13.565Z,19.9817
2019-03-29T13:31:25.751Z,19.8709
2019-03-29T13:31:37.945Z,19.6292
2019-03-29T13:31:50.271Z,19.4681
2019-03-29T13:32:01.445Z,19.3976
2019-03-29T13:32:13.631Z,19.3271
2019-03-29T13:32:25.833Z,19.3271
2019-03-29T13:32:38.025Z,19.4077
2019-03-29T13:32:50.215Z,19.5486
2019-03-29T13:33:02.392Z,19.6896
2019-03-29T13:33:14.574Z,19.9817
2019-03-29T13:33:27.651Z,20.1730
2019-03-29T13:33:39.972Z,20.2133
2019-03-29T13:33:51.191Z,20.1831
2019-03-29T13:34:03.383Z,20.2637
2019-03-29T13:34:15.571Z,20.4147
2019-03-29T13:34:27.753Z,20.5457
2019-03-29T13:34:39.961Z,20.6061
2019-03-29T13:34:52.173Z,20.6665
2019-03-29T13:35:03.649Z,20.7974
2019-03-29T13:35:14.841Z,20.9082
2019-03-29T13:35:27.040Z,20.9888
2019-03-29T13:35:39.233Z,20.8780
2019-03-29T13:35:51.415Z,20.6967
2019-03-29T13:36:03.603Z,20.5658
2019-03-29T13:36:15.783Z,20.4651
2019-03-29T13:36:27.981Z,20.6564
2019-03-29T13:36:40.183Z,20.5356
2019-03-29T13:36:52.379Z,20.1831
2019-03-29T13:37:04.553Z,19.8810
2019-03-29T13:37:16.748Z,19.7702
2019-03-29T13:37:28.952Z,19.6191
2019-03-29T13:37:41.142Z,19.4379
2019-03-29T13:37:53.345Z,19.3674
2019-03-29T13:38:05.533Z,19.2767
2019-03-29T13:38:20.454Z,19.2163
2019-03-29T13:38:32.981Z,19.4077
2019-03-29T13:38:45.271Z,19.6494
2019-03-29T13:38:57.463Z,19.8608
2019-03-29T13:39:09.695Z,19.6594
2019-03-29T13:39:21.877Z,19.7400
2019-03-29T13:39:33.080Z,19.9918
2019-03-29T13:39:45.274Z,20.2637
2019-03-29T13:39:57.495Z,20.3845
2019-03-29T13:40:09.722Z,20.4248
2019-03-29T13:40:21.925Z,20.5154
2019-03-29T13:40:34.109Z,20.5457
2019-03-29T13:40:46.318Z,20.4752
2019-03-29T13:40:57.507Z,20.4248
2019-03-29T13:41:09.684Z,20.2939
2019-03-29T13:41:21.871Z,20.3644
2019-03-29T13:41:34.062Z,20.4147
2019-03-29T13:41:46.238Z,20.3845
2019-03-29T13:41:58.424Z,20.3845
2019-03-29T13:42:10.636Z,20.3543
2019-03-29T13:42:22.824Z,20.2939
2019-03-29T13:42:35.024Z,20.1428
2019-03-29T13:42:47.226Z,20.1025
2019-03-29T13:42:59.430Z,20.1328
2019-03-29T13:43:11.612Z,20.1630
2019-03-29T13:43:23.804Z,20.1630
2019-03-29T13:43:36.013Z,20.1126
2019-03-29T13:43:48.232Z,20.0119
2019-03-29T13:43:59.439Z,19.9515
2019-03-29T13:44:23.320Z,19.8810
2019-03-29T13:44:28.829Z,19.8709
2019-03-29T13:44:41.044Z,19.8608
2019-03-29T13:44:53.248Z,19.7803
2019-03-29T13:45:05.488Z,19.7299
2019-03-29T13:45:17.748Z,19.7803
2019-03-29T13:45:30.697Z,19.6191
2019-03-29T13:45:42.886Z,19.6796
2019-03-29T13:45:55.137Z,19.8004
2019-03-29T13:46:07.375Z,19.8407
2019-03-29T13:46:19.785Z,20.0119
2019-03-29T13:46:32.193Z,20.1428
2019-03-29T13:46:44.801Z,20.2335
2019-03-29T13:46:57.353Z,20.2939
2019-03-29T13:47:09.733Z,20.3342
2019-03-29T13:47:22.121Z,20.4752
2019-03-29T13:47:34.542Z,20.7571
2019-03-29T13:47:46.936Z,21.0291
2019-03-29T13:47:59.322Z,21.1700
2019-03-29T13:48:11.731Z,21.3513
2019-03-29T13:48:24.193Z,21.5829
2019-03-29T13:48:36.595Z,21.6232
2019-03-29T13:48:48.972Z,21.5024
2019-03-29T13:49:01.361Z,21.5225
2019-03-29T13:49:13.771Z,21.5829
2019-03-29T13:49:25.173Z,21.4621
2019-03-29T13:49:37.567Z,21.5829
2019-03-29T13:49:49.965Z,21.3815
2019-03-29T13:50:02.369Z,21.3211
2019-03-29T13:50:14.815Z,21.2204
2019-03-29T13:50:27.176Z,20.8881
2019-03-29T13:50:39.599Z,20.7874
2019-03-29T13:50:51.015Z,20.5154
2019-03-29T13:51:03.401Z,20.5658
2019-03-29T13:51:15.867Z,20.4953
2019-03-29T13:51:28.417Z,20.3241
2019-03-29T13:51:40.883Z,20.1328
2019-03-29T13:51:53.301Z,19.8105
2019-03-29T13:52:05.723Z,19.9817
2019-03-29T13:52:26.253Z,20.1831
2019-03-29T13:52:38.704Z,20.4349
2019-03-29T13:52:50.434Z,20.6866
2019-03-29T13:53:02.838Z,20.9384
2019-03-29T13:53:15.022Z,21.1298
2019-03-29T13:53:27.332Z,21.2103
2019-03-29T13:53:39.510Z,21.3715
2019-03-29T13:53:51.704Z,21.5326
2019-03-29T13:54:03.892Z,21.6736
2019-03-29T13:54:16.090Z,21.7743
2019-03-29T13:54:28.320Z,21.7542
2019-03-29T13:54:40.492Z,21.6534
2019-03-29T13:54:52.695Z,21.4319
2019-03-29T13:55:04.895Z,21.4621
2019-03-29T13:55:17.083Z,21.3815
2019-03-29T13:55:29.282Z,21.5427
2019-03-29T13:55:41.482Z,21.7441
2019-03-29T13:55:53.845Z,21.8649
2019-03-29T13:56:06.032Z,21.8649
2019-03-29T13:56:18.211Z,21.9958
2019-03-29T13:56:30.448Z,22.1973
2019-03-29T13:56:42.653Z,22.2375
2019-03-29T13:56:54.860Z,22.0865
2019-03-29T13:57:07.064Z,21.9958
2019-03-29T13:57:18.286Z,21.8448
2019-03-29T13:57:30.464Z,21.6232
2019-03-29T13:57:42.652Z,21.4420
2019-03-29T13:57:54.894Z,21.4319
2019-03-29T13:58:07.121Z,21.3513
2019-03-29T13:58:19.360Z,21.1398
2019-03-29T13:58:31.540Z,21.0089
2019-03-29T13:58:43.744Z,20.8176
2019-03-29T13:58:55.942Z,20.5859
2019-03-29T13:59:08.149Z,20.5859
2019-03-29T13:59:20.352Z,20.6665
2019-03-29T13:59:32.545Z,20.5859
2019-03-29T13:59:44.741Z,20.5154
2019-03-29T13:59:56.713Z,20.4147
2019-03-29T14:00:08.912Z,20.4953
2019-03-29T14:00:20.987Z,20.5759
2019-03-29T14:00:33.187Z,20.7370
2019-03-29T14:00:45.379Z,20.7974
2019-03-29T14:00:57.683Z,20.7672
2019-03-29T14:01:08.889Z,20.6161
2019-03-29T14:01:21.087Z,20.5759
2019-03-29T14:01:33.271Z,20.5457
2019-03-29T14:01:45.449Z,20.2939
2019-03-29T14:01:58.131Z,20.2637
2019-03-29T14:02:10.333Z,20.3342
2019-03-29T14:02:21.519Z,20.1630
2019-03-29T14:02:33.717Z,20.1428
2019-03-29T14:02:45.927Z,20.2838
2019-03-29T14:02:58.103Z,20.2939
2019-03-29T14:03:10.447Z,20.1630
2019-03-29T14:03:22.771Z,19.9414
2019-03-29T14:03:34.953Z,19.8709
2019-03-29T14:03:47.139Z,19.8306
2019-03-29T14:03:58.329Z,19.6091
2019-03-29T14:04:10.451Z,19.3976
2019-03-29T14:04:22.672Z,19.3170
2019-03-29T14:04:34.846Z,19.1357
2019-03-29T14:04:47.059Z,19.2767
2019-03-29T14:04:59.249Z,19.3573
2019-03-29T14:05:11.440Z,19.5486
2019-03-29T14:05:23.627Z,19.5386
2019-03-29T14:05:35.953Z,19.6292
2019-03-29T14:05:48.137Z,19.6796
2019-03-29T14:06:00.353Z,19.6896
2019-03-29T14:06:12.561Z,19.8608
2019-03-29T14:06:24.759Z,19.9213
2019-03-29T14:06:36.939Z,20.0220
2019-03-29T14:06:49.121Z,20.0824
2019-03-29T14:07:01.309Z,20.1025
2019-03-29T14:07:13.544Z,20.0119
2019-03-29T14:07:25.742Z,19.9112
2019-03-29T14:07:37.929Z,20.0119
2019-03-29T14:07:50.133Z,20.1328
2019-03-29T14:08:02.330Z,20.2838
2019-03-29T14:08:14.539Z,20.5759
2019-03-29T14:08:26.733Z,20.8377
2019-03-29T14:08:38.918Z,20.8679
2019-03-29T14:08:51.119Z,20.7672
2019-03-29T14:09:03.299Z,20.7169
2019-03-29T14:09:15.497Z,20.5759
2019-03-29T14:09:29.328Z,20.5457
2019-03-29T14:09:41.707Z,20.5658
2019-03-29T14:09:53.891Z,20.5859
2019-03-29T14:10:05.100Z,20.4752
2019-03-29T14:10:17.297Z,20.4349
2019-03-29T14:10:29.498Z,20.3845
2019-03-29T14:10:41.693Z,20.1428
2019-03-29T14:10:53.887Z,20.2133
2019-03-29T14:11:06.088Z,20.3543
2019-03-29T14:11:18.271Z,20.5054
2019-03-29T14:11:29.636Z,20.6363
2019-03-29T14:11:42.049Z,20.7571
2019-03-29T14:11:54.497Z,21.0089
2019-03-29T14:12:06.881Z,21.2204
2019-03-29T14:12:19.283Z,21.4218
2019-03-29T14:12:31.673Z,21.4923
2019-03-29T14:12:44.069Z,21.4722
2019-03-29T14:12:56.442Z,21.5326
2019-03-29T14:13:08.843Z,21.6434
2019-03-29T14:13:20.227Z,21.7743
2019-03-29T14:13:32.763Z,21.8246
2019-03-29T14:13:44.149Z,21.9052
2019-03-29T14:13:56.567Z,21.9958
2019-03-29T14:14:09.087Z,21.8750
2019-03-29T14:14:21.431Z,21.8951
2019-03-29T14:14:38.570Z,21.9757
2019-03-29T14:14:51.130Z,22.0563
2019-03-29T14:15:02.542Z,22.2476
2019-03-29T14:15:14.899Z,22.3886
2019-03-29T14:15:27.320Z,22.4490
2019-03-29T14:15:39.709Z,22.5397
2019-03-29T14:15:52.153Z,22.4893
2019-03-29T14:16:04.579Z,22.1973
2019-03-29T14:16:16.969Z,21.9556
2019-03-29T14:16:29.369Z,21.7944
2019-03-29T14:16:41.767Z,21.4722
2019-03-29T14:16:54.161Z,21.3715
2019-03-29T14:17:06.585Z,21.3412
2019-03-29T14:17:18.989Z,21.3815
2019-03-29T14:17:30.400Z,21.2808
2019-03-29T14:17:42.793Z,21.4722
2019-03-29T14:17:54.983Z,21.6937
2019-03-29T14:18:07.196Z,21.9354
2019-03-29T14:18:19.378Z,21.9153
2019-03-29T14:18:31.563Z,21.7542
2019-03-29T14:18:44.045Z,21.4621
2019-03-29T14:18:56.275Z,21.4621
2019-03-29T14:19:08.459Z,21.3815
2019-03-29T14:19:20.697Z,21.0693
2019-03-29T14:19:32.873Z,20.9686
2019-03-29T14:19:45.064Z,20.9686
2019-03-29T14:19:57.252Z,21.0089
2019-03-29T14:20:09.448Z,20.7974
2019-03-29T14:20:21.603Z,20.8478
2019-03-29T14:20:34.098Z,20.7974
2019-03-29T14:20:46.307Z,20.6564
2019-03-29T14:20:58.523Z,20.4953
2019-03-29T14:21:10.831Z,20.2939
2019-03-29T14:21:23.021Z,20.0623
2019-03-29T14:21:35.219Z,19.8407
2019-03-29T14:21:47.417Z,19.8407
2019-03-29T14:21:59.599Z,20.0824
2019-03-29T14:22:11.777Z,20.2939
2019-03-29T14:22:23.993Z,20.5457
2019-03-29T14:22:36.197Z,20.6665
2019-03-29T14:22:48.399Z,20.7169
2019-03-29T14:23:00.583Z,20.7370
2019-03-29T14:23:12.778Z,20.8377
2019-03-29T14:23:24.975Z,20.9384
2019-03-29T14:23:37.172Z,20.9787
2019-03-29T14:23:49.349Z,20.8881
2019-03-29T14:24:01.620Z,20.8478
2019-03-29T14:24:13.833Z,20.8780
2019-03-29T14:24:26.027Z,20.7169
2019-03-29T14:24:38.207Z,20.6061
2019-03-29T14:24:50.389Z,20.6665
2019-03-29T14:25:02.597Z,20.7571
2019-03-29T14:25:14.833Z,20.6564
2019-03-29T14:25:27.019Z,20.4349
2019-03-29T14:25:39.239Z,20.2032
2019-03-29T14:25:51.589Z,20.0320
2019-03-29T14:26:03.763Z,20.0320
2019-03-29T14:26:16.338Z,20.0320
2019-03-29T14:26:28.743Z,20.1831
2019-03-29T14:26:40.939Z,20.0824
2019-03-29T14:26:53.161Z,19.8709
2019-03-29T14:27:05.359Z,19.7601
2019-03-29T14:27:17.543Z,19.7702
2019-03-29T14:27:28.752Z,19.9112
2019-03-29T14:27:41.111Z,20.1126
2019-03-29T14:27:53.297Z,20.3241
2019-03-29T14:28:04.491Z,20.2133
2019-03-29T14:28:16.686Z,20.2435
2019-03-29T14:28:28.879Z,20.3845
2019-03-29T14:28:41.080Z,20.3845
2019-03-29T14:28:53.271Z,20.4752
2019-03-29T14:29:05.447Z,20.5356
2019-03-29T14:29:17.633Z,20.5859
2019-03-29T14:29:29.830Z,20.5457
2019-03-29T14:29:42.016Z,20.3140
2019-03-29T14:30:04.140Z,20.0623
2019-03-29T14:30:11.341Z,20.1831
2019-03-29T14:30:23.540Z,20.3543
2019-03-29T14:30:35.732Z,20.4752
2019-03-29T14:30:47.923Z,20.5457
2019-03-29T14:31:00.112Z,20.3644
2019-03-29T14:31:12.309Z,20.3644
2019-03-29T14:31:24.517Z,20.4248
2019-03-29T14:31:36.711Z,20.4953
2019-03-29T14:31:48.910Z,20.4248
2019-03-29T14:32:01.109Z,20.4651
2019-03-29T14:32:13.349Z,20.2032
2019-03-29T14:32:25.534Z,19.9213
2019-03-29T14:32:36.716Z,19.8709
2019-03-29T14:32:48.907Z,19.9515
2019-03-29T14:33:01.089Z,20.0119
2019-03-29T14:33:13.365Z,19.9817
2019-03-29T14:33:25.557Z,20.0320
2019-03-29T14:33:37.759Z,20.0119
2019-03-29T14:33:49.969Z,20.0623
2019-03-29T14:34:02.147Z,20.2032
2019-03-29T14:34:14.335Z,19.9615
2019-03-29T14:34:26.519Z,19.7601
2019-03-29T14:34:38.713Z,19.5789
2019-03-29T14:34:50.898Z,19.4781
2019-03-29T14:35:03.083Z,19.5789
2019-03-29T14:35:15.281Z,19.6292
2019-03-29T14:35:26.478Z,19.4379
2019-03-29T14:35:38.679Z,19.5587
2019-03-29T14:35:50.883Z,19.7400
2019-03-29T14:36:03.067Z,19.6796
2019-03-29T14:36:15.249Z,19.5386
2019-03-29T14:36:27.467Z,19.4983
2019-03-29T14:36:39.651Z,19.5486
2019-03-29T14:36:51.837Z,19.7601
2019-03-29T14:37:03.056Z,19.8407
2019-03-29T14:37:15.452Z,20.0119
2019-03-29T14:37:27.653Z,20.1730
2019-03-29T14:37:38.853Z,20.3845
2019-03-29T14:37:51.055Z,20.5759
2019-03-29T14:38:03.241Z,20.7169
2019-03-29T14:38:15.428Z,20.7269
2019-03-29T14:38:27.634Z,20.8377
2019-03-29T14:38:39.853Z,20.9485
2019-03-29T14:38:52.033Z,20.9384
2019-03-29T14:39:03.339Z,21.0291
2019-03-29T14:39:15.653Z,20.9082
2019-03-29T14:39:26.837Z,20.7269
2019-03-29T14:39:39.029Z,20.7571
2019-03-29T14:39:51.361Z,20.9082
2019-03-29T14:40:03.577Z,21.0895
2019-03-29T14:40:15.800Z,21.1700
2019-03-29T14:40:27.981Z,21.1902
2019-03-29T14:40:40.180Z,21.1902
2019-03-29T14:40:52.367Z,21.0995
2019-03-29T14:41:04.573Z,21.0895
2019-03-29T14:41:16.857Z,21.1600
2019-03-29T14:41:29.084Z,21.0089
2019-03-29T14:41:40.282Z,21.0291
2019-03-29T14:41:52.480Z,21.1700
2019-03-29T14:42:04.669Z,21.2103
2019-03-29T14:42:16.868Z,21.1700
2019-03-29T14:42:29.065Z,21.2808
2019-03-29T14:42:41.277Z,21.1197
2019-03-29T14:42:53.473Z,21.1197
2019-03-29T14:43:05.650Z,21.0995
2019-03-29T14:43:17.837Z,20.9183
2019-03-29T14:43:30.029Z,20.6866
2019-03-29T14:43:42.233Z,20.6564
2019-03-29T14:43:54.449Z,20.8176